createdAt,value
2023-04-07T00:11:09.342Z,-1.34
2023-04-07T00:26:09.029Z,-1.20
2023-04-07T00:41:09.501Z,-1.01
2023-04-07T00:56:09.210Z,-0.98
2023-04-07T01:11:09.360Z,-1.23
2023-04-07T01:26:09.549Z,-1.74
2023-04-07T01:41:09.974Z,-1.77
2023-04-07T01:56:09.636Z,-1.98
2023-04-07T02:11:09.786Z,-2.08
2023-04-07T02:26:09.884Z,-1.94
2023-04-07T02:41:09.961Z,-1.88
2023-04-07T02:56:10.887Z,-1.92
2023-04-07T03:11:11.573Z,-1.52
2023-04-07T03:26:12.330Z,-1.41
2023-04-07T03:41:12.682Z,-1.46
2023-04-07T03:56:13.310Z,-1.31
2023-04-07T04:11:14.017Z,-1.05
2023-04-07T04:26:14.626Z,-0.95
2023-04-07T04:41:15.276Z,-0.67
2023-04-07T04:56:15.837Z,-0.46
2023-04-07T05:11:15.972Z,-0.37
2023-04-07T05:26:16.684Z,-0.03
2023-04-07T05:41:17.922Z,0.42
2023-04-07T05:56:18.437Z,1.36
2023-04-07T06:11:18.531Z,2.60
2023-04-07T06:26:18.685Z,2.82
2023-04-07T06:41:18.888Z,3.42
2023-04-07T06:56:19.403Z,4.04
2023-04-07T07:11:20.198Z,5.13
2023-04-07T07:26:20.222Z,5.99
2023-04-07T07:41:20.800Z,6.71
2023-04-07T07:56:21.554Z,6.74
2023-04-07T08:11:21.513Z,6.88
2023-04-07T08:26:22.218Z,6.87
2023-04-07T08:41:22.820Z,7.13
2023-04-07T08:56:22.789Z,7.40
2023-04-07T09:11:22.995Z,7.40
2023-04-07T09:26:23.526Z,7.42
2023-04-07T09:41:24.143Z,7.60
2023-04-07T09:56:24.590Z,7.40
2023-04-07T10:11:24.441Z,7.74
2023-04-07T10:26:24.653Z,7.63
2023-04-07T10:41:24.540Z,7.37
2023-04-07T10:56:24.668Z,7.23
2023-04-07T11:11:25.403Z,7.17
2023-04-07T11:26:26.052Z,6.94
2023-04-07T11:41:26.232Z,6.79
2023-04-07T11:56:26.534Z,6.64
2023-04-07T12:11:26.503Z,6.98
2023-04-07T12:26:26.915Z,7.07
2023-04-07T12:41:27.714Z,6.94
2023-04-07T12:56:27.803Z,6.71
2023-04-07T13:11:27.798Z,6.69
2023-04-07T13:26:28.451Z,6.64
2023-04-07T13:41:29.063Z,6.94
2023-04-07T13:56:30.602Z,7.10
2023-04-07T14:11:30.284Z,6.91
2023-04-07T14:26:30.602Z,6.74
2023-04-07T14:41:31.060Z,6.64
2023-04-07T14:56:32.099Z,6.66
2023-04-07T15:11:33.041Z,6.52
2023-04-07T15:26:32.940Z,6.43
2023-04-07T15:41:33.090Z,6.40
2023-04-07T15:56:33.541Z,6.22
2023-04-07T16:11:34.497Z,6.14
2023-04-07T16:26:41.696Z,5.94
2023-04-07T16:41:41.947Z,5.97
2023-04-07T16:56:43.045Z,5.83
2023-04-07T17:11:44.015Z,5.76
2023-04-07T17:26:43.888Z,5.91
2023-04-07T17:41:43.895Z,5.86
2023-04-07T17:56:44.006Z,5.61
2023-04-07T18:11:44.484Z,5.74
2023-04-07T18:26:44.215Z,5.53
2023-04-07T18:41:44.301Z,5.39
2023-04-07T18:56:44.514Z,5.28
2023-04-07T19:11:44.550Z,5.24
2023-04-07T19:26:44.828Z,5.20
2023-04-07T19:41:47.240Z,5.18
2023-04-07T19:56:47.459Z,5.10
2023-04-07T20:11:47.998Z,5.22
2023-04-07T20:26:48.675Z,5.09
2023-04-07T20:41:49.681Z,5.15
2023-04-07T20:56:49.975Z,5.09
2023-04-07T21:11:49.972Z,5.12
2023-04-07T21:26:50.593Z,5.10
2023-04-07T21:41:51.258Z,5.13
2023-04-07T21:56:51.937Z,5.12
2023-04-07T22:11:53.734Z,5.27
2023-04-07T22:26:53.588Z,5.15
2023-04-07T22:41:53.779Z,5.22
2023-04-07T22:56:54.758Z,5.25
2023-04-07T23:11:54.573Z,5.20
2023-04-07T23:26:55.015Z,5.20
2023-04-07T23:41:55.562Z,5.39
2023-04-07T23:56:55.812Z,5.28
